sensor_id;sensor_type;location;lat;lon;timestamp;temperature;humidity
18934;DHT22;9599;53.706;10.384;2022-07-01T00:00:49;21.50;99.90
18934;DHT22;9599;53.706;10.384;2022-07-01T00:03:17;21.50;99.90
18934;DHT22;9599;53.706;10.384;2022-07-01T00:05:47;21.50;99.90
18934;DHT22;9599;53.706;10.384;2022-07-01T00:08:14;21.60;99.90
18934;DHT22;9599;53.706;10.384;2022-07-01T00:10:42;21.60;99.90
18934;DHT22;9599;53.706;10.384;2022-07-01T00:13:10;21.60;99.90
18934;DHT22;9599;53.706;10.384;2022-07-01T00:15:38;21.60;99.90
18934;DHT22;9599;53.706;10.384;2022-07-01T00:18:06;21.60;99.90
18934;DHT22;9599;53.706;10.384;2022-07-01T00:20:34;21.60;99.90
18934;DHT22;9599;53.706;10.384;2022-07-01T00:23:03;21.60;99.90
18934;DHT22;9599;53.706;10.384;2022-07-01T00:25:31;21.60;99.90
18934;DHT22;9599;53.706;10.384;2022-07-01T00:27:59;21.70;99.90
18934;DHT22;9599;53.706;10.384;2022-07-01T00:30:27;21.70;99.90
18934;DHT22;9599;53.706;10.384;2022-07-01T00:32:56;21.80;99.90
18934;DHT22;9599;53.706;10.384;2022-07-01T00:35:24;21.90;99.90
18934;DHT22;9599;53.706;10.384;2022-07-01T00:37:52;22.00;99.90
18934;DHT22;9599;53.706;10.384;2022-07-01T00:40:21;22.00;99.90
18934;DHT22;9599;53.706;10.384;2022-07-01T00:42:49;22.10;99.90
18934;DHT22;9599;53.706;10.384;2022-07-01T00:45:17;22.10;99.90
18934;DHT22;9599;53.706;10.384;2022-07-01T00:47:45;22.20;99.90
18934;DHT22;9599;53.706;10.384;2022-07-01T00:50:14;22.20;99.90
18934;DHT22;9599;53.706;10.384;2022-07-01T00:52:44;22.30;99.90
18934;DHT22;9599;53.706;10.384;2022-07-01T00:55:13;22.30;99.90
18934;DHT22;9599;53.706;10.384;2022-07-01T00:57:43;22.30;99.90
18934;DHT22;9599;53.706;10.384;2022-07-01T01:00:14;22.30;99.90
18934;DHT22;9599;53.706;10.384;2022-07-01T01:02:43;22.30;99.90
18934;DHT22;9599;53.706;10.384;2022-07-01T01:05:12;22.40;99.90
18934;DHT22;9599;53.706;10.384;2022-07-01T01:07:41;22.40;99.90
18934;DHT22;9599;53.706;10.384;2022-07-01T01:10:09;22.40;99.90
18934;DHT22;9599;53.706;10.384;2022-07-01T01:12:37;22.40;99.90
18934;DHT22;9599;53.706;10.384;2022-07-01T01:15:07;22.40;99.90
18934;DHT22;9599;53.706;10.384;2022-07-01T01:17:35;22.40;99.90
18934;DHT22;9599;53.706;10.384;2022-07-01T01:20:05;22.40;99.90
18934;DHT22;9599;53.706;10.384;2022-07-01T01:22:34;22.40;99.90
18934;DHT22;9599;53.706;10.384;2022-07-01T01:25:02;22.40;99.90
18934;DHT22;9599;53.706;10.384;2022-07-01T01:27:30;22.40;99.90
18934;DHT22;9599;53.706;10.384;2022-07-01T01:29:58;22.30;99.90
18934;DHT22;9599;53.706;10.384;2022-07-01T01:32:26;22.30;99.90
18934;DHT22;9599;53.706;10.384;2022-07-01T01:34:54;22.30;99.90
18934;DHT22;9599;53.706;10.384;2022-07-01T01:37:22;22.20;99.90
18934;DHT22;9599;53.706;10.384;2022-07-01T01:39:51;22.10;99.90
18934;DHT22;9599;53.706;10.384;2022-07-01T01:42:19;22.00;99.90
18934;DHT22;9599;53.706;10.384;2022-07-01T01:44:47;21.90;99.90
18934;DHT22;9599;53.706;10.384;2022-07-01T01:47:15;21.80;99.90
18934;DHT22;9599;53.706;10.384;2022-07-01T01:49:43;21.80;99.90
18934;DHT22;9599;53.706;10.384;2022-07-01T01:52:11;21.70;99.90
18934;DHT22;9599;53.706;10.384;2022-07-01T01:54:39;21.70;99.90
18934;DHT22;9599;53.706;10.384;2022-07-01T01:57:09;21.60;99.90
18934;DHT22;9599;53.706;10.384;2022-07-01T01:59:37;21.40;99.90
18934;DHT22;9599;53.706;10.384;2022-07-01T02:02:04;21.40;99.90
18934;DHT22;9599;53.706;10.384;2022-07-01T02:04:32;21.30;99.90
18934;DHT22;9599;53.706;10.384;2022-07-01T02:07:01;21.30;99.90
18934;DHT22;9599;53.706;10.384;2022-07-01T02:09:29;21.20;99.90
18934;DHT22;9599;53.706;10.384;2022-07-01T02:11:57;21.10;99.90
18934;DHT22;9599;53.706;10.384;2022-07-01T02:14:26;21.10;99.90
18934;DHT22;9599;53.706;10.384;2022-07-01T02:16:55;21.10;99.90
18934;DHT22;9599;53.706;10.384;2022-07-01T02:19:23;21.00;99.90
18934;DHT22;9599;53.706;10.384;2022-07-01T02:21:51;20.90;99.90
18934;DHT22;9599;53.706;10.384;2022-07-01T02:24:19;21.00;99.90
18934;DHT22;9599;53.706;10.384;2022-07-01T02:26:47;21.10;99.90
18934;DHT22;9599;53.706;10.384;2022-07-01T02:29:14;21.10;99.90
18934;DHT22;9599;53.706;10.384;2022-07-01T02:31:44;21.20;99.90
18934;DHT22;9599;53.706;10.384;2022-07-01T02:34:12;21.20;99.90
18934;DHT22;9599;53.706;10.384;2022-07-01T02:36:39;21.20;99.90
18934;DHT22;9599;53.706;10.384;2022-07-01T02:39:07;21.20;99.90
18934;DHT22;9599;53.706;10.384;2022-07-01T02:41:35;21.20;99.90
18934;DHT22;9599;53.706;10.384;2022-07-01T02:44:23;21.20;99.90
18934;DHT22;9599;53.706;10.384;2022-07-01T02:46:52;21.10;99.90
18934;DHT22;9599;53.706;10.384;2022-07-01T02:49:20;21.10;99.90
18934;DHT22;9599;53.706;10.384;2022-07-01T02:51:48;21.00;99.90
18934;DHT22;9599;53.706;10.384;2022-07-01T02:54:16;20.90;99.90
18934;DHT22;9599;53.706;10.384;2022-07-01T02:56:44;20.80;99.90
18934;DHT22;9599;53.706;10.384;2022-07-01T02:59:12;20.80;99.90
18934;DHT22;9599;53.706;10.384;2022-07-01T03:01:39;20.80;99.90
18934;DHT22;9599;53.706;10.384;2022-07-01T03:04:09;20.90;99.90
18934;DHT22;9599;53.706;10.384;2022-07-01T03:06:37;20.90;99.90
18934;DHT22;9599;53.706;10.384;2022-07-01T03:09:05;21.00;99.90
18934;DHT22;9599;53.706;10.384;2022-07-01T03:11:33;21.10;99.90
18934;DHT22;9599;53.706;10.384;2022-07-01T03:14:01;21.10;99.90
18934;DHT22;9599;53.706;10.384;2022-07-01T03:16:29;21.10;99.90
18934;DHT22;9599;53.706;10.384;2022-07-01T03:18:57;21.10;99.90
18934;DHT22;9599;53.706;10.384;2022-07-01T03:21:26;21.10;99.90
18934;DHT22;9599;53.706;10.384;2022-07-01T03:23:54;21.10;99.90
18934;DHT22;9599;53.706;10.384;2022-07-01T03:26:22;21.10;99.90
18934;DHT22;9599;53.706;10.384;2022-07-01T03:28:50;21.10;99.90
18934;DHT22;9599;53.706;10.384;2022-07-01T03:31:18;21.10;99.90
18934;DHT22;9599;53.706;10.384;2022-07-01T03:33:46;21.10;99.90
18934;DHT22;9599;53.706;10.384;2022-07-01T03:36:13;21.10;99.90
18934;DHT22;9599;53.706;10.384;2022-07-01T03:38:43;21.10;99.90
18934;DHT22;9599;53.706;10.384;2022-07-01T03:41:11;21.10;99.90
18934;DHT22;9599;53.706;10.384;2022-07-01T03:43:39;21.10;99.90
18934;DHT22;9599;53.706;10.384;2022-07-01T03:46:06;21.10;99.90
18934;DHT22;9599;53.706;10.384;2022-07-01T03:48:34;21.10;99.90
18934;DHT22;9599;53.706;10.384;2022-07-01T03:51:07;21.10;99.90
18934;DHT22;9599;53.706;10.384;2022-07-01T03:53:36;21.00;99.90
18934;DHT22;9599;53.706;10.384;2022-07-01T03:56:19;20.90;99.90
18934;DHT22;9599;53.706;10.384;2022-07-01T03:58:47;20.80;99.90
18934;DHT22;9599;53.706;10.384;2022-07-01T04:01:14;20.80;99.90
18934;DHT22;9599;53.706;10.384;2022-07-01T04:03:42;20.80;99.90
18934;DHT22;9599;53.706;10.384;2022-07-01T04:06:10;20.80;99.90
18934;DHT22;9599;53.706;10.384;2022-07-01T04:08:38;20.80;99.90
18934;DHT22;9599;53.706;10.384;2022-07-01T04:11:06;20.80;99.90
18934;DHT22;9599;53.706;10.384;2022-07-01T04:13:37;20.80;99.90
18934;DHT22;9599;53.706;10.384;2022-07-01T04:16:05;20.90;99.90
18934;DHT22;9599;53.706;10.384;2022-07-01T04:18:33;20.90;99.90
18934;DHT22;9599;53.706;10.384;2022-07-01T04:21:02;20.90;99.90
18934;DHT22;9599;53.706;10.384;2022-07-01T04:23:48;20.90;99.90
18934;DHT22;9599;53.706;10.384;2022-07-01T04:26:15;21.00;99.90
18934;DHT22;9599;53.706;10.384;2022-07-01T04:29:05;21.00;99.90
18934;DHT22;9599;53.706;10.384;2022-07-01T04:31:34;20.90;99.90
18934;DHT22;9599;53.706;10.384;2022-07-01T04:34:02;21.00;99.90
18934;DHT22;9599;53.706;10.384;2022-07-01T04:36:30;21.10;99.90
18934;DHT22;9599;53.706;10.384;2022-07-01T04:38:58;21.00;99.90
18934;DHT22;9599;53.706;10.384;2022-07-01T04:41:26;21.00;99.90
18934;DHT22;9599;53.706;10.384;2022-07-01T04:44:13;21.00;99.90
18934;DHT22;9599;53.706;10.384;2022-07-01T04:46:41;20.90;99.90
18934;DHT22;9599;53.706;10.384;2022-07-01T04:49:10;21.00;99.90
18934;DHT22;9599;53.706;10.384;2022-07-01T04:51:37;21.00;99.90
18934;DHT22;9599;53.706;10.384;2022-07-01T04:54:06;21.00;99.90
18934;DHT22;9599;53.706;10.384;2022-07-01T04:56:36;21.00;99.90
18934;DHT22;9599;53.706;10.384;2022-07-01T04:59:10;21.00;99.90
18934;DHT22;9599;53.706;10.384;2022-07-01T05:01:39;20.80;99.90
18934;DHT22;9599;53.706;10.384;2022-07-01T05:04:07;20.80;99.90
18934;DHT22;9599;53.706;10.384;2022-07-01T05:06:36;20.70;99.90
18934;DHT22;9599;53.706;10.384;2022-07-01T05:09:04;20.70;99.90
18934;DHT22;9599;53.706;10.384;2022-07-01T05:11:32;20.70;99.90
18934;DHT22;9599;53.706;10.384;2022-07-01T05:14:00;20.70;99.90
18934;DHT22;9599;53.706;10.384;2022-07-01T05:16:28;20.70;99.90
18934;DHT22;9599;53.706;10.384;2022-07-01T05:18:58;20.60;99.90
18934;DHT22;9599;53.706;10.384;2022-07-01T05:21:43;20.50;99.90
18934;DHT22;9599;53.706;10.384;2022-07-01T05:24:25;20.40;99.90
18934;DHT22;9599;53.706;10.384;2022-07-01T05:26:54;20.40;99.90
18934;DHT22;9599;53.706;10.384;2022-07-01T05:29:22;20.40;99.90
18934;DHT22;9599;53.706;10.384;2022-07-01T05:31:50;20.30;99.90
18934;DHT22;9599;53.706;10.384;2022-07-01T05:34:19;20.20;99.90
18934;DHT22;9599;53.706;10.384;2022-07-01T05:36:47;20.20;99.90
18934;DHT22;9599;53.706;10.384;2022-07-01T05:39:15;20.10;99.90
18934;DHT22;9599;53.706;10.384;2022-07-01T05:41:43;20.00;99.90
18934;DHT22;9599;53.706;10.384;2022-07-01T05:44:12;19.80;99.90
18934;DHT22;9599;53.706;10.384;2022-07-01T05:46:40;19.70;99.90
18934;DHT22;9599;53.706;10.384;2022-07-01T05:49:08;19.60;99.90
18934;DHT22;9599;53.706;10.384;2022-07-01T05:51:44;19.50;99.90
18934;DHT22;9599;53.706;10.384;2022-07-01T05:54:12;19.40;99.90
18934;DHT22;9599;53.706;10.384;2022-07-01T05:56:40;19.50;99.90
18934;DHT22;9599;53.706;10.384;2022-07-01T05:59:08;19.40;99.90
18934;DHT22;9599;53.706;10.384;2022-07-01T06:01:36;19.40;99.90
18934;DHT22;9599;53.706;10.384;2022-07-01T06:04:04;19.40;99.90
18934;DHT22;9599;53.706;10.384;2022-07-01T06:06:32;19.50;99.90
18934;DHT22;9599;53.706;10.384;2022-07-01T06:09:01;19.50;99.90
18934;DHT22;9599;53.706;10.384;2022-07-01T06:11:29;19.50;99.90
18934;DHT22;9599;53.706;10.384;2022-07-01T06:13:58;19.40;99.90
18934;DHT22;9599;53.706;10.384;2022-07-01T06:16:26;19.10;99.90
18934;DHT22;9599;53.706;10.384;2022-07-01T06:18:57;19.00;99.90
18934;DHT22;9599;53.706;10.384;2022-07-01T06:21:25;18.80;99.90
18934;DHT22;9599;53.706;10.384;2022-07-01T06:23:53;18.80;99.90
18934;DHT22;9599;53.706;10.384;2022-07-01T06:26:22;18.70;99.90
18934;DHT22;9599;53.706;10.384;2022-07-01T06:28:50;18.60;99.90
18934;DHT22;9599;53.706;10.384;2022-07-01T06:31:18;18.50;99.90
18934;DHT22;9599;53.706;10.384;2022-07-01T06:33:46;18.50;99.90
18934;DHT22;9599;53.706;10.384;2022-07-01T06:36:14;18.40;99.90
18934;DHT22;9599;53.706;10.384;2022-07-01T06:38:43;18.40;99.90
18934;DHT22;9599;53.706;10.384;2022-07-01T06:41:10;18.40;99.90
18934;DHT22;9599;53.706;10.384;2022-07-01T06:44:00;18.50;99.90
18934;DHT22;9599;53.706;10.384;2022-07-01T06:46:28;18.50;99.90
18934;DHT22;9599;53.706;10.384;2022-07-01T06:48:58;18.40;99.90
18934;DHT22;9599;53.706;10.384;2022-07-01T06:51:26;18.40;99.90
18934;DHT22;9599;53.706;10.384;2022-07-01T06:53:55;18.40;99.90
18934;DHT22;9599;53.706;10.384;2022-07-01T06:56:23;18.30;99.90
18934;DHT22;9599;53.706;10.384;2022-07-01T06:58:51;18.40;99.90
18934;DHT22;9599;53.706;10.384;2022-07-01T07:01:20;18.30;99.90
18934;DHT22;9599;53.706;10.384;2022-07-01T07:03:48;18.00;99.90
18934;DHT22;9599;53.706;10.384;2022-07-01T07:06:16;17.90;99.90
18934;DHT22;9599;53.706;10.384;2022-07-01T07:08:43;17.70;99.90
18934;DHT22;9599;53.706;10.384;2022-07-01T07:11:12;17.50;99.90
18934;DHT22;9599;53.706;10.384;2022-07-01T07:13:42;17.40;99.90
18934;DHT22;9599;53.706;10.384;2022-07-01T07:16:10;17.40;99.90
18934;DHT22;9599;53.706;10.384;2022-07-01T07:18:39;17.40;99.90
18934;DHT22;9599;53.706;10.384;2022-07-01T07:21:07;17.60;99.90
18934;DHT22;9599;53.706;10.384;2022-07-01T07:23:36;17.70;99.90
18934;DHT22;9599;53.706;10.384;2022-07-01T07:26:04;17.90;99.90
18934;DHT22;9599;53.706;10.384;2022-07-01T07:28:32;18.10;99.90
18934;DHT22;9599;53.706;10.384;2022-07-01T07:31:00;18.10;99.90
18934;DHT22;9599;53.706;10.384;2022-07-01T07:33:28;18.20;99.90
18934;DHT22;9599;53.706;10.384;2022-07-01T07:35:57;18.40;99.90
18934;DHT22;9599;53.706;10.384;2022-07-01T07:38:25;18.40;99.90
18934;DHT22;9599;53.706;10.384;2022-07-01T07:40:53;18.40;99.90
18934;DHT22;9599;53.706;10.384;2022-07-01T07:43:21;18.40;99.90
18934;DHT22;9599;53.706;10.384;2022-07-01T07:45:49;18.40;99.90
18934;DHT22;9599;53.706;10.384;2022-07-01T07:48:17;18.50;99.90
18934;DHT22;9599;53.706;10.384;2022-07-01T07:50:45;18.60;99.90
18934;DHT22;9599;53.706;10.384;2022-07-01T07:53:15;18.70;99.90
18934;DHT22;9599;53.706;10.384;2022-07-01T07:55:43;18.80;99.90
18934;DHT22;9599;53.706;10.384;2022-07-01T07:58:11;18.70;99.90
18934;DHT22;9599;53.706;10.384;2022-07-01T08:00:39;18.70;99.90
18934;DHT22;9599;53.706;10.384;2022-07-01T08:03:07;18.60;99.90
18934;DHT22;9599;53.706;10.384;2022-07-01T08:05:35;18.70;99.90
18934;DHT22;9599;53.706;10.384;2022-07-01T08:08:04;18.60;99.90
18934;DHT22;9599;53.706;10.384;2022-07-01T08:10:33;18.60;99.90
18934;DHT22;9599;53.706;10.384;2022-07-01T08:13:01;18.50;99.90
18934;DHT22;9599;53.706;10.384;2022-07-01T08:15:32;18.30;99.90
18934;DHT22;9599;53.706;10.384;2022-07-01T08:18:00;18.40;99.90
18934;DHT22;9599;53.706;10.384;2022-07-01T08:20:28;18.50;99.90
18934;DHT22;9599;53.706;10.384;2022-07-01T08:22:56;18.50;99.90
18934;DHT22;9599;53.706;10.384;2022-07-01T08:25:24;18.60;99.90
18934;DHT22;9599;53.706;10.384;2022-07-01T08:28:00;18.70;99.90
18934;DHT22;9599;53.706;10.384;2022-07-01T08:30:28;18.70;99.90
18934;DHT22;9599;53.706;10.384;2022-07-01T08:32:56;18.70;99.90
18934;DHT22;9599;53.706;10.384;2022-07-01T08:35:24;18.60;99.90
18934;DHT22;9599;53.706;10.384;2022-07-01T08:37:52;18.60;99.90
18934;DHT22;9599;53.706;10.384;2022-07-01T08:40:24;18.50;99.90
18934;DHT22;9599;53.706;10.384;2022-07-01T08:42:55;18.50;99.90
18934;DHT22;9599;53.706;10.384;2022-07-01T08:45:27;18.50;99.90
18934;DHT22;9599;53.706;10.384;2022-07-01T08:47:57;18.40;99.90
18934;DHT22;9599;53.706;10.384;2022-07-01T08:50:28;18.30;99.90
18934;DHT22;9599;53.706;10.384;2022-07-01T08:52:56;18.40;99.90
18934;DHT22;9599;53.706;10.384;2022-07-01T08:55:24;18.40;99.90
18934;DHT22;9599;53.706;10.384;2022-07-01T08:57:52;18.30;99.90
18934;DHT22;9599;53.706;10.384;2022-07-01T09:00:20;18.30;99.90
18934;DHT22;9599;53.706;10.384;2022-07-01T09:02:54;18.20;99.90
18934;DHT22;9599;53.706;10.384;2022-07-01T09:05:24;18.30;99.90
18934;DHT22;9599;53.706;10.384;2022-07-01T09:07:56;18.30;99.90
18934;DHT22;9599;53.706;10.384;2022-07-01T09:10:25;18.20;99.90
18934;DHT22;9599;53.706;10.384;2022-07-01T09:12:53;18.10;99.90
18934;DHT22;9599;53.706;10.384;2022-07-01T09:15:23;18.00;99.90
18934;DHT22;9599;53.706;10.384;2022-07-01T09:17:55;17.90;99.90
18934;DHT22;9599;53.706;10.384;2022-07-01T09:20:26;17.90;99.90
18934;DHT22;9599;53.706;10.384;2022-07-01T09:22:58;17.90;99.90
18934;DHT22;9599;53.706;10.384;2022-07-01T09:25:28;18.00;99.90
18934;DHT22;9599;53.706;10.384;2022-07-01T09:28:07;17.90;99.90
18934;DHT22;9599;53.706;10.384;2022-07-01T09:30:37;18.00;99.90
18934;DHT22;9599;53.706;10.384;2022-07-01T09:33:08;18.00;99.90
18934;DHT22;9599;53.706;10.384;2022-07-01T09:35:37;17.90;99.90
18934;DHT22;9599;53.706;10.384;2022-07-01T09:38:06;17.80;99.90
18934;DHT22;9599;53.706;10.384;2022-07-01T09:40:45;17.80;99.90
18934;DHT22;9599;53.706;10.384;2022-07-01T09:43:15;17.90;99.90
18934;DHT22;9599;53.706;10.384;2022-07-01T09:45:58;17.90;99.90
18934;DHT22;9599;53.706;10.384;2022-07-01T09:48:43;17.90;99.90
18934;DHT22;9599;53.706;10.384;2022-07-01T09:51:12;18.00;99.90
18934;DHT22;9599;53.706;10.384;2022-07-01T09:53:41;18.00;99.90
18934;DHT22;9599;53.706;10.384;2022-07-01T09:56:09;18.00;99.90
18934;DHT22;9599;53.706;10.384;2022-07-01T09:58:38;18.00;99.90
18934;DHT22;9599;53.706;10.384;2022-07-01T10:01:09;18.10;99.90
18934;DHT22;9599;53.706;10.384;2022-07-01T10:03:38;18.00;99.90
18934;DHT22;9599;53.706;10.384;2022-07-01T10:06:42;18.00;99.90
18934;DHT22;9599;53.706;10.384;2022-07-01T10:09:35;18.00;99.90
18934;DHT22;9599;53.706;10.384;2022-07-01T10:12:25;17.90;99.90
18934;DHT22;9599;53.706;10.384;2022-07-01T10:14:57;17.90;99.90
18934;DHT22;9599;53.706;10.384;2022-07-01T10:17:28;17.90;99.90
18934;DHT22;9599;53.706;10.384;2022-07-01T10:20:05;17.80;99.90
18934;DHT22;9599;53.706;10.384;2022-07-01T10:22:35;17.90;99.90
18934;DHT22;9599;53.706;10.384;2022-07-01T10:25:33;17.90;99.90
18934;DHT22;9599;53.706;10.384;2022-07-01T10:28:29;17.90;99.90
18934;DHT22;9599;53.706;10.384;2022-07-01T10:31:00;17.90;99.90
18934;DHT22;9599;53.706;10.384;2022-07-01T10:33:34;17.80;99.90
18934;DHT22;9599;53.706;10.384;2022-07-01T10:36:13;17.80;99.90
18934;DHT22;9599;53.706;10.384;2022-07-01T10:39:08;17.70;99.90
18934;DHT22;9599;53.706;10.384;2022-07-01T10:41:38;17.70;99.90
18934;DHT22;9599;53.706;10.384;2022-07-01T10:44:09;17.70;99.90
18934;DHT22;9599;53.706;10.384;2022-07-01T10:46:44;17.80;99.90
18934;DHT22;9599;53.706;10.384;2022-07-01T10:49:13;17.90;99.90
18934;DHT22;9599;53.706;10.384;2022-07-01T10:51:46;17.90;99.90
18934;DHT22;9599;53.706;10.384;2022-07-01T10:54:46;17.90;99.90
18934;DHT22;9599;53.706;10.384;2022-07-01T10:57:39;18.00;99.90
18934;DHT22;9599;53.706;10.384;2022-07-01T11:00:30;17.90;99.90
18934;DHT22;9599;53.706;10.384;2022-07-01T11:03:13;17.80;99.90
18934;DHT22;9599;53.706;10.384;2022-07-01T11:05:43;17.60;99.90
18934;DHT22;9599;53.706;10.384;2022-07-01T11:08:13;17.60;99.90
18934;DHT22;9599;53.706;10.384;2022-07-01T11:10:57;17.70;99.90
18934;DHT22;9599;53.706;10.384;2022-07-01T11:13:28;17.70;99.90
18934;DHT22;9599;53.706;10.384;2022-07-01T11:15:56;17.70;99.90
18934;DHT22;9599;53.706;10.384;2022-07-01T11:18:25;17.70;99.90
18934;DHT22;9599;53.706;10.384;2022-07-01T11:21:03;17.70;99.90
18934;DHT22;9599;53.706;10.384;2022-07-01T11:23:33;17.80;99.90
18934;DHT22;9599;53.706;10.384;2022-07-01T11:26:06;17.80;99.90
18934;DHT22;9599;53.706;10.384;2022-07-01T11:28:39;17.70;99.90
18934;DHT22;9599;53.706;10.384;2022-07-01T11:31:07;17.70;99.90
18934;DHT22;9599;53.706;10.384;2022-07-01T11:33:35;17.70;99.90
18934;DHT22;9599;53.706;10.384;2022-07-01T11:36:06;17.70;99.90
18934;DHT22;9599;53.706;10.384;2022-07-01T11:38:54;17.80;99.90
18934;DHT22;9599;53.706;10.384;2022-07-01T11:41:40;17.80;99.90
18934;DHT22;9599;53.706;10.384;2022-07-01T11:44:08;17.80;99.90
18934;DHT22;9599;53.706;10.384;2022-07-01T11:46:36;17.90;99.90
18934;DHT22;9599;53.706;10.384;2022-07-01T11:49:11;17.90;99.90
18934;DHT22;9599;53.706;10.384;2022-07-01T11:51:40;17.90;99.90
18934;DHT22;9599;53.706;10.384;2022-07-01T11:54:19;18.10;99.90
18934;DHT22;9599;53.706;10.384;2022-07-01T11:56:49;18.10;99.90
18934;DHT22;9599;53.706;10.384;2022-07-01T11:59:17;18.10;99.90
18934;DHT22;9599;53.706;10.384;2022-07-01T12:01:51;18.10;99.90
18934;DHT22;9599;53.706;10.384;2022-07-01T12:04:20;18.20;99.90
18934;DHT22;9599;53.706;10.384;2022-07-01T12:06:49;18.20;99.90
18934;DHT22;9599;53.706;10.384;2022-07-01T12:09:19;18.20;99.90
18934;DHT22;9599;53.706;10.384;2022-07-01T12:11:49;18.20;99.90
18934;DHT22;9599;53.706;10.384;2022-07-01T12:14:22;18.30;99.90
18934;DHT22;9599;53.706;10.384;2022-07-01T12:16:52;18.20;99.90
18934;DHT22;9599;53.706;10.384;2022-07-01T12:19:26;18.20;99.90
18934;DHT22;9599;53.706;10.384;2022-07-01T12:21:57;18.30;99.90
18934;DHT22;9599;53.706;10.384;2022-07-01T12:24:27;18.30;99.90
18934;DHT22;9599;53.706;10.384;2022-07-01T12:27:02;18.30;99.90
18934;DHT22;9599;53.706;10.384;2022-07-01T12:29:47;18.40;99.90
18934;DHT22;9599;53.706;10.384;2022-07-01T12:32:17;18.50;99.90
18934;DHT22;9599;53.706;10.384;2022-07-01T12:34:47;18.50;99.90
18934;DHT22;9599;53.706;10.384;2022-07-01T12:37:17;18.40;99.90
18934;DHT22;9599;53.706;10.384;2022-07-01T12:39:48;18.30;99.90
18934;DHT22;9599;53.706;10.384;2022-07-01T12:42:21;18.40;99.90
18934;DHT22;9599;53.706;10.384;2022-07-01T12:44:50;18.50;99.90
18934;DHT22;9599;53.706;10.384;2022-07-01T12:47:19;18.60;99.90
18934;DHT22;9599;53.706;10.384;2022-07-01T12:49:47;18.60;99.90
18934;DHT22;9599;53.706;10.384;2022-07-01T12:52:26;18.50;99.90
18934;DHT22;9599;53.706;10.384;2022-07-01T12:54:57;18.40;99.90
18934;DHT22;9599;53.706;10.384;2022-07-01T12:57:29;18.30;99.90
18934;DHT22;9599;53.706;10.384;2022-07-01T13:00:05;18.40;99.90
18934;DHT22;9599;53.706;10.384;2022-07-01T13:02:36;18.50;99.90
18934;DHT22;9599;53.706;10.384;2022-07-01T13:05:04;18.80;99.90
18934;DHT22;9599;53.706;10.384;2022-07-01T13:07:32;18.80;99.90
18934;DHT22;9599;53.706;10.384;2022-07-01T13:10:02;18.80;99.90
18934;DHT22;9599;53.706;10.384;2022-07-01T13:12:30;18.70;99.90
18934;DHT22;9599;53.706;10.384;2022-07-01T13:14:58;18.90;99.90
18934;DHT22;9599;53.706;10.384;2022-07-01T13:17:26;19.00;99.90
18934;DHT22;9599;53.706;10.384;2022-07-01T13:19:54;19.10;99.90
18934;DHT22;9599;53.706;10.384;2022-07-01T13:22:22;19.10;99.90
18934;DHT22;9599;53.706;10.384;2022-07-01T13:24:50;19.10;99.90
18934;DHT22;9599;53.706;10.384;2022-07-01T13:27:19;19.10;99.90
18934;DHT22;9599;53.706;10.384;2022-07-01T13:29:49;19.10;99.90
18934;DHT22;9599;53.706;10.384;2022-07-01T13:32:17;19.20;99.90
18934;DHT22;9599;53.706;10.384;2022-07-01T13:34:45;19.20;99.90
18934;DHT22;9599;53.706;10.384;2022-07-01T13:37:13;19.30;99.90
18934;DHT22;9599;53.706;10.384;2022-07-01T13:39:41;19.40;99.90
18934;DHT22;9599;53.706;10.384;2022-07-01T13:42:10;19.30;99.90
18934;DHT22;9599;53.706;10.384;2022-07-01T13:44:39;19.30;99.90
18934;DHT22;9599;53.706;10.384;2022-07-01T13:47:07;19.30;99.90
18934;DHT22;9599;53.706;10.384;2022-07-01T13:49:36;19.30;99.90
18934;DHT22;9599;53.706;10.384;2022-07-01T13:52:05;19.30;99.90
18934;DHT22;9599;53.706;10.384;2022-07-01T13:54:33;19.30;99.90
18934;DHT22;9599;53.706;10.384;2022-07-01T13:57:01;19.40;99.90
18934;DHT22;9599;53.706;10.384;2022-07-01T13:59:29;19.50;99.90
18934;DHT22;9599;53.706;10.384;2022-07-01T14:01:58;19.70;99.90
18934;DHT22;9599;53.706;10.384;2022-07-01T14:04:27;19.80;99.90
18934;DHT22;9599;53.706;10.384;2022-07-01T14:06:54;19.80;99.90
18934;DHT22;9599;53.706;10.384;2022-07-01T14:09:23;19.90;99.90
18934;DHT22;9599;53.706;10.384;2022-07-01T14:11:51;20.00;99.90
18934;DHT22;9599;53.706;10.384;2022-07-01T14:14:19;20.00;99.90
18934;DHT22;9599;53.706;10.384;2022-07-01T14:16:47;19.90;99.90
18934;DHT22;9599;53.706;10.384;2022-07-01T14:19:16;19.90;99.90
18934;DHT22;9599;53.706;10.384;2022-07-01T14:21:44;19.90;99.90
18934;DHT22;9599;53.706;10.384;2022-07-01T14:24:12;20.00;99.90
18934;DHT22;9599;53.706;10.384;2022-07-01T14:26:40;19.90;99.90
18934;DHT22;9599;53.706;10.384;2022-07-01T14:29:08;19.90;99.90
18934;DHT22;9599;53.706;10.384;2022-07-01T14:31:36;19.90;99.90
18934;DHT22;9599;53.706;10.384;2022-07-01T14:34:04;20.20;99.90
18934;DHT22;9599;53.706;10.384;2022-07-01T14:36:33;20.10;99.90
18934;DHT22;9599;53.706;10.384;2022-07-01T14:39:01;19.90;99.90
18934;DHT22;9599;53.706;10.384;2022-07-01T14:41:29;19.90;99.90
18934;DHT22;9599;53.706;10.384;2022-07-01T14:43:57;19.80;99.90
18934;DHT22;9599;53.706;10.384;2022-07-01T14:46:25;19.80;99.90
18934;DHT22;9599;53.706;10.384;2022-07-01T14:48:53;19.70;99.90
18934;DHT22;9599;53.706;10.384;2022-07-01T14:51:21;19.80;99.90
18934;DHT22;9599;53.706;10.384;2022-07-01T14:53:50;19.90;99.90
18934;DHT22;9599;53.706;10.384;2022-07-01T14:56:23;19.90;99.90
18934;DHT22;9599;53.706;10.384;2022-07-01T14:58:51;19.90;99.90
18934;DHT22;9599;53.706;10.384;2022-07-01T15:01:18;19.90;99.90
18934;DHT22;9599;53.706;10.384;2022-07-01T15:03:46;19.90;99.90
18934;DHT22;9599;53.706;10.384;2022-07-01T15:06:14;20.00;99.90
18934;DHT22;9599;53.706;10.384;2022-07-01T15:08:42;19.90;99.90
18934;DHT22;9599;53.706;10.384;2022-07-01T15:11:11;19.80;99.90
18934;DHT22;9599;53.706;10.384;2022-07-01T15:13:39;19.70;99.90
18934;DHT22;9599;53.706;10.384;2022-07-01T15:16:07;19.80;99.90
18934;DHT22;9599;53.706;10.384;2022-07-01T15:18:41;19.80;99.90
18934;DHT22;9599;53.706;10.384;2022-07-01T15:21:09;19.70;99.90
18934;DHT22;9599;53.706;10.384;2022-07-01T15:23:37;19.70;99.90
18934;DHT22;9599;53.706;10.384;2022-07-01T15:26:04;19.60;99.90
18934;DHT22;9599;53.706;10.384;2022-07-01T15:28:34;19.70;99.90
18934;DHT22;9599;53.706;10.384;2022-07-01T15:31:02;19.60;99.90
18934;DHT22;9599;53.706;10.384;2022-07-01T15:33:30;19.50;99.90
18934;DHT22;9599;53.706;10.384;2022-07-01T15:35:58;19.50;99.90
18934;DHT22;9599;53.706;10.384;2022-07-01T15:38:26;19.50;99.90
18934;DHT22;9599;53.706;10.384;2022-07-01T15:40:54;19.50;99.90
18934;DHT22;9599;53.706;10.384;2022-07-01T15:43:22;19.50;99.90
18934;DHT22;9599;53.706;10.384;2022-07-01T15:45:51;19.50;99.90
18934;DHT22;9599;53.706;10.384;2022-07-01T15:48:20;19.60;99.90